sensor_id;sensor_type;location;lat;lon;timestamp;pressure;altitude;pressure_sealevel;temperature;humidity
16806;BME280;8520;50.102;20.010;2023-03-04T00:01:26;98278.97;;;-0.76;99.41
16806;BME280;8520;50.102;20.010;2023-03-04T00:03:56;98277.03;;;-0.76;99.86
16806;BME280;8520;50.102;20.010;2023-03-04T00:06:24;98271.81;;;-0.49;99.17
16806;BME280;8520;50.102;20.010;2023-03-04T00:08:52;98270.00;;;-0.63;99.35
16806;BME280;8520;50.102;20.010;2023-03-04T00:11:20;98264.91;;;-0.57;98.43
16806;BME280;8520;50.102;20.010;2023-03-04T00:13:48;98248.56;;;-0.46;98.84
16806;BME280;8520;50.102;20.010;2023-03-04T00:16:16;98266.47;;;-0.60;97.98
16806;BME280;8520;50.102;20.010;2023-03-04T00:18:44;98257.97;;;-0.58;98.01
16806;BME280;8520;50.102;20.010;2023-03-04T00:21:14;98261.56;;;-0.72;98.97
16806;BME280;8520;50.102;20.010;2023-03-04T00:23:42;98245.03;;;-0.40;97.94
16806;BME280;8520;50.102;20.010;2023-03-04T00:26:10;98237.13;;;-0.65;98.55
16806;BME280;8520;50.102;20.010;2023-03-04T00:28:41;98229.66;;;-0.50;97.91
16806;BME280;8520;50.102;20.010;2023-03-04T00:31:10;98219.56;;;-0.46;97.60
16806;BME280;8520;50.102;20.010;2023-03-04T00:33:38;98225.47;;;-0.58;97.95
16806;BME280;8520;50.102;20.010;2023-03-04T00:36:09;98215.47;;;-0.65;98.72
16806;BME280;8520;50.102;20.010;2023-03-04T00:38:39;98205.19;;;-0.36;97.93
16806;BME280;8520;50.102;20.010;2023-03-04T00:41:07;98203.31;;;-0.46;98.43
16806;BME280;8520;50.102;20.010;2023-03-04T00:43:35;98205.19;;;-0.36;98.09
16806;BME280;8520;50.102;20.010;2023-03-04T00:46:03;98215.41;;;-0.54;97.97
16806;BME280;8520;50.102;20.010;2023-03-04T00:48:32;98200.13;;;-0.34;97.80
16806;BME280;8520;50.102;20.010;2023-03-04T00:51:01;98204.28;;;-0.63;98.47
16806;BME280;8520;50.102;20.010;2023-03-04T00:53:29;98192.91;;;-0.47;98.15
16806;BME280;8520;50.102;20.010;2023-03-04T00:55:58;98202.97;;;-0.48;98.23
16806;BME280;8520;50.102;20.010;2023-03-04T00:58:26;98177.66;;;-0.31;97.57
16806;BME280;8520;50.102;20.010;2023-03-04T01:00:54;98181.66;;;-0.46;98.02
16806;BME280;8520;50.102;20.010;2023-03-04T01:03:24;98164.88;;;-0.30;97.79
16806;BME280;8520;50.102;20.010;2023-03-04T01:05:52;98160.00;;;-0.46;97.71
16806;BME280;8520;50.102;20.010;2023-03-04T01:08:21;98153.00;;;-0.40;96.90
16806;BME280;8520;50.102;20.010;2023-03-04T01:10:51;98153.47;;;-0.48;97.16
16806;BME280;8520;50.102;20.010;2023-03-04T01:13:21;98140.94;;;-0.32;97.65
16806;BME280;8520;50.102;20.010;2023-03-04T01:15:49;98141.69;;;-0.31;97.93
16806;BME280;8520;50.102;20.010;2023-03-04T01:18:17;98130.88;;;0.03;96.29
16806;BME280;8520;50.102;20.010;2023-03-04T01:20:45;98136.63;;;0.05;96.17
16806;BME280;8520;50.102;20.010;2023-03-04T01:23:13;98137.19;;;-0.07;96.11
16806;BME280;8520;50.102;20.010;2023-03-04T01:25:41;98130.34;;;-0.53;97.42
16806;BME280;8520;50.102;20.010;2023-03-04T01:28:10;98133.25;;;-0.37;97.82
16806;BME280;8520;50.102;20.010;2023-03-04T01:30:41;98108.50;;;-0.35;97.95
16806;BME280;8520;50.102;20.010;2023-03-04T01:33:09;98115.06;;;-0.02;97.18
16806;BME280;8520;50.102;20.010;2023-03-04T01:35:37;98113.59;;;-0.10;96.96
16806;BME280;8520;50.102;20.010;2023-03-04T01:38:05;98127.88;;;-0.40;97.47
16806;BME280;8520;50.102;20.010;2023-03-04T01:40:33;98114.34;;;-0.40;98.35
16806;BME280;8520;50.102;20.010;2023-03-04T01:43:01;98108.31;;;-0.21;97.20
16806;BME280;8520;50.102;20.010;2023-03-04T01:45:30;98104.47;;;-0.23;96.71
16806;BME280;8520;50.102;20.010;2023-03-04T01:48:00;98112.94;;;-0.52;98.33
16806;BME280;8520;50.102;20.010;2023-03-04T01:50:31;98105.31;;;-0.30;98.65
16806;BME280;8520;50.102;20.010;2023-03-04T01:53:00;98098.09;;;-0.40;98.58
16806;BME280;8520;50.102;20.010;2023-03-04T01:55:29;98112.56;;;-0.54;99.19
16806;BME280;8520;50.102;20.010;2023-03-04T01:57:57;98103.75;;;-0.28;97.72
16806;BME280;8520;50.102;20.010;2023-03-04T02:00:28;98102.69;;;-0.37;97.92
16806;BME280;8520;50.102;20.010;2023-03-04T02:03:01;98097.75;;;-0.46;99.19
16806;BME280;8520;50.102;20.010;2023-03-04T02:05:34;98101.91;;;-0.04;96.89
16806;BME280;8520;50.102;20.010;2023-03-04T02:08:04;98096.59;;;-0.11;96.90
16806;BME280;8520;50.102;20.010;2023-03-04T02:10:33;98084.03;;;-0.28;97.73
16806;BME280;8520;50.102;20.010;2023-03-04T02:13:02;98095.81;;;-0.11;97.01
16806;BME280;8520;50.102;20.010;2023-03-04T02:15:31;98090.06;;;-0.47;98.13
16806;BME280;8520;50.102;20.010;2023-03-04T02:18:02;98077.63;;;-0.11;97.96
16806;BME280;8520;50.102;20.010;2023-03-04T02:20:37;98086.69;;;-0.59;97.72
16806;BME280;8520;50.102;20.010;2023-03-04T02:23:14;98081.91;;;-0.44;98.87
16806;BME280;8520;50.102;20.010;2023-03-04T02:25:46;98101.28;;;-0.49;98.73
16806;BME280;8520;50.102;20.010;2023-03-04T02:28:18;98095.41;;;-0.10;98.20
16806;BME280;8520;50.102;20.010;2023-03-04T02:30:46;98080.16;;;0.04;96.75
16806;BME280;8520;50.102;20.010;2023-03-04T02:33:16;98093.44;;;-0.40;97.13
16806;BME280;8520;50.102;20.010;2023-03-04T02:35:45;98071.16;;;-0.20;97.21
16806;BME280;8520;50.102;20.010;2023-03-04T02:38:14;98074.56;;;-0.43;97.49
16806;BME280;8520;50.102;20.010;2023-03-04T02:40:45;98067.44;;;-0.30;97.37
16806;BME280;8520;50.102;20.010;2023-03-04T02:43:21;98069.00;;;-0.02;97.05
16806;BME280;8520;50.102;20.010;2023-03-04T02:45:50;98065.00;;;0.10;95.92
16806;BME280;8520;50.102;20.010;2023-03-04T02:48:20;98058.78;;;-0.18;95.35
16806;BME280;8520;50.102;20.010;2023-03-04T02:50:51;98035.38;;;-0.05;96.33
16806;BME280;8520;50.102;20.010;2023-03-04T02:53:20;98045.88;;;-0.07;95.22
16806;BME280;8520;50.102;20.010;2023-03-04T02:55:48;98041.56;;;-0.04;95.17
16806;BME280;8520;50.102;20.010;2023-03-04T02:58:19;98024.09;;;-0.26;96.04
16806;BME280;8520;50.102;20.010;2023-03-04T03:00:49;98013.97;;;0.05;96.24
16806;BME280;8520;50.102;20.010;2023-03-04T03:03:17;98026.94;;;0.17;94.82
16806;BME280;8520;50.102;20.010;2023-03-04T03:05:45;98026.56;;;-0.09;94.92
16806;BME280;8520;50.102;20.010;2023-03-04T03:08:14;98036.38;;;-0.22;96.24
16806;BME280;8520;50.102;20.010;2023-03-04T03:10:42;98037.25;;;-0.02;95.99
16806;BME280;8520;50.102;20.010;2023-03-04T03:13:10;98036.31;;;-0.15;95.87
16806;BME280;8520;50.102;20.010;2023-03-04T03:15:38;98034.34;;;-0.14;95.47
16806;BME280;8520;50.102;20.010;2023-03-04T03:18:10;98020.66;;;-0.04;94.94
16806;BME280;8520;50.102;20.010;2023-03-04T03:20:41;98029.09;;;0.02;94.70
16806;BME280;8520;50.102;20.010;2023-03-04T03:23:09;98018.53;;;0.11;94.41
16806;BME280;8520;50.102;20.010;2023-03-04T03:25:37;98016.75;;;0.01;94.32
16806;BME280;8520;50.102;20.010;2023-03-04T03:28:05;98019.22;;;-0.12;94.93
16806;BME280;8520;50.102;20.010;2023-03-04T03:30:33;98018.34;;;-0.32;95.94
16806;BME280;8520;50.102;20.010;2023-03-04T03:33:05;98016.44;;;-0.05;95.25
16806;BME280;8520;50.102;20.010;2023-03-04T03:35:34;98028.09;;;-0.08;95.32
16806;BME280;8520;50.102;20.010;2023-03-04T03:38:02;98037.88;;;-0.17;95.80
16806;BME280;8520;50.102;20.010;2023-03-04T03:40:31;98030.22;;;-0.22;95.68
16806;BME280;8520;50.102;20.010;2023-03-04T03:42:59;98021.91;;;-0.39;96.69
16806;BME280;8520;50.102;20.010;2023-03-04T03:45:27;98023.28;;;0.04;95.42
16806;BME280;8520;50.102;20.010;2023-03-04T03:47:55;98030.53;;;-0.17;94.91
16806;BME280;8520;50.102;20.010;2023-03-04T03:50:23;98028.56;;;-0.47;95.35
16806;BME280;8520;50.102;20.010;2023-03-04T03:52:53;98016.84;;;-0.06;95.26
16806;BME280;8520;50.102;20.010;2023-03-04T03:55:21;98024.91;;;-0.03;94.39
16806;BME280;8520;50.102;20.010;2023-03-04T03:57:49;98026.06;;;-0.31;94.98
16806;BME280;8520;50.102;20.010;2023-03-04T04:00:18;98040.22;;;-0.50;94.39
16806;BME280;8520;50.102;20.010;2023-03-04T04:02:46;98014.81;;;0.02;94.29
16806;BME280;8520;50.102;20.010;2023-03-04T04:05:14;98018.69;;;0.01;93.61
16806;BME280;8520;50.102;20.010;2023-03-04T04:07:42;98008.81;;;-0.13;94.31
16806;BME280;8520;50.102;20.010;2023-03-04T04:10:12;98018.06;;;-0.41;94.26
16806;BME280;8520;50.102;20.010;2023-03-04T04:12:40;98023.69;;;-0.29;93.90
16806;BME280;8520;50.102;20.010;2023-03-04T04:15:10;98008.22;;;-0.28;93.58
16806;BME280;8520;50.102;20.010;2023-03-04T04:17:38;98007.28;;;-0.14;92.80
16806;BME280;8520;50.102;20.010;2023-03-04T04:20:08;98010.13;;;-0.25;92.99
16806;BME280;8520;50.102;20.010;2023-03-04T04:22:36;98012.28;;;-0.13;93.14
16806;BME280;8520;50.102;20.010;2023-03-04T04:25:05;98019.72;;;-0.20;93.83
16806;BME280;8520;50.102;20.010;2023-03-04T04:27:37;98022.25;;;-0.06;92.84
16806;BME280;8520;50.102;20.010;2023-03-04T04:30:06;98011.97;;;0.09;92.64
16806;BME280;8520;50.102;20.010;2023-03-04T04:32:34;98007.13;;;-0.04;92.50
16806;BME280;8520;50.102;20.010;2023-03-04T04:35:03;98022.50;;;-0.24;93.17
16806;BME280;8520;50.102;20.010;2023-03-04T04:37:32;98018.56;;;0.08;92.94
16806;BME280;8520;50.102;20.010;2023-03-04T04:40:00;98020.63;;;0.00;92.89
16806;BME280;8520;50.102;20.010;2023-03-04T04:42:28;98000.84;;;0.03;92.81
16806;BME280;8520;50.102;20.010;2023-03-04T04:44:57;98004.63;;;0.09;91.96
16806;BME280;8520;50.102;20.010;2023-03-04T04:47:25;98007.72;;;-0.19;93.39
16806;BME280;8520;50.102;20.010;2023-03-04T04:49:54;97996.09;;;-0.16;93.37
16806;BME280;8520;50.102;20.010;2023-03-04T04:52:22;98014.06;;;-0.30;93.39
16806;BME280;8520;50.102;20.010;2023-03-04T04:54:50;97995.53;;;0.46;91.04
16806;BME280;8520;50.102;20.010;2023-03-04T04:57:18;98000.31;;;0.39;90.26
16806;BME280;8520;50.102;20.010;2023-03-04T04:59:46;97988.09;;;0.50;89.28
16806;BME280;8520;50.102;20.010;2023-03-04T05:02:15;97994.22;;;0.78;88.62
16806;BME280;8520;50.102;20.010;2023-03-04T05:04:44;97998.19;;;0.73;88.73
16806;BME280;8520;50.102;20.010;2023-03-04T05:07:12;98003.84;;;0.59;89.05
16806;BME280;8520;50.102;20.010;2023-03-04T05:09:40;97979.66;;;1.11;88.23
16806;BME280;8520;50.102;20.010;2023-03-04T05:12:08;97999.88;;;1.07;86.01
16806;BME280;8520;50.102;20.010;2023-03-04T05:14:36;97977.19;;;0.54;88.05
16806;BME280;8520;50.102;20.010;2023-03-04T05:17:04;97967.34;;;0.64;88.17
16806;BME280;8520;50.102;20.010;2023-03-04T05:19:34;97965.91;;;0.79;88.07
16806;BME280;8520;50.102;20.010;2023-03-04T05:22:02;97970.31;;;0.49;88.97
16806;BME280;8520;50.102;20.010;2023-03-04T05:24:30;97980.50;;;0.18;90.02
16806;BME280;8520;50.102;20.010;2023-03-04T05:26:58;97969.78;;;0.35;90.06
16806;BME280;8520;50.102;20.010;2023-03-04T05:29:26;97986.88;;;0.32;90.42
16806;BME280;8520;50.102;20.010;2023-03-04T05:31:54;97965.59;;;0.53;89.31
16806;BME280;8520;50.102;20.010;2023-03-04T05:34:22;97955.19;;;0.72;88.08
16806;BME280;8520;50.102;20.010;2023-03-04T05:36:52;97950.94;;;0.27;89.28
16806;BME280;8520;50.102;20.010;2023-03-04T05:39:20;97970.78;;;0.44;89.95
16806;BME280;8520;50.102;20.010;2023-03-04T05:41:48;97984.69;;;0.23;89.71
16806;BME280;8520;50.102;20.010;2023-03-04T05:44:16;97957.34;;;0.14;90.39
16806;BME280;8520;50.102;20.010;2023-03-04T05:46:47;97959.41;;;-0.21;91.43
16806;BME280;8520;50.102;20.010;2023-03-04T05:49:15;97958.69;;;0.02;91.68
16806;BME280;8520;50.102;20.010;2023-03-04T05:51:43;97962.22;;;0.22;91.34
16806;BME280;8520;50.102;20.010;2023-03-04T05:54:13;97952.44;;;0.05;91.34
16806;BME280;8520;50.102;20.010;2023-03-04T05:56:41;97938.84;;;0.55;89.25
16806;BME280;8520;50.102;20.010;2023-03-04T05:59:10;97957.16;;;0.24;89.14
16806;BME280;8520;50.102;20.010;2023-03-04T06:01:38;97943.13;;;0.76;89.26
16806;BME280;8520;50.102;20.010;2023-03-04T06:04:06;97942.94;;;0.64;89.06
16806;BME280;8520;50.102;20.010;2023-03-04T06:06:34;97942.06;;;0.90;88.54
16806;BME280;8520;50.102;20.010;2023-03-04T06:09:02;97959.41;;;0.53;88.52
16806;BME280;8520;50.102;20.010;2023-03-04T06:11:31;97950.38;;;0.83;89.07
16806;BME280;8520;50.102;20.010;2023-03-04T06:14:02;97948.78;;;0.62;87.88
16806;BME280;8520;50.102;20.010;2023-03-04T06:16:31;97951.25;;;0.76;87.49
16806;BME280;8520;50.102;20.010;2023-03-04T06:18:59;97967.28;;;0.44;89.33
16806;BME280;8520;50.102;20.010;2023-03-04T06:21:27;97968.81;;;0.68;88.89
16806;BME280;8520;50.102;20.010;2023-03-04T06:23:55;97975.81;;;-0.05;90.13
16806;BME280;8520;50.102;20.010;2023-03-04T06:26:23;97952.75;;;0.57;89.69
16806;BME280;8520;50.102;20.010;2023-03-04T06:28:52;97962.84;;;0.77;88.24
16806;BME280;8520;50.102;20.010;2023-03-04T06:31:22;97958.94;;;1.01;87.44
16806;BME280;8520;50.102;20.010;2023-03-04T06:33:50;97960.16;;;0.53;88.12
16806;BME280;8520;50.102;20.010;2023-03-04T06:36:19;97954.31;;;0.78;88.24
16806;BME280;8520;50.102;20.010;2023-03-04T06:38:47;97977.38;;;1.10;87.86
16806;BME280;8520;50.102;20.010;2023-03-04T06:41:15;97972.06;;;1.03;86.28
16806;BME280;8520;50.102;20.010;2023-03-04T06:43:43;97955.84;;;0.79;88.29
16806;BME280;8520;50.102;20.010;2023-03-04T06:46:12;97956.75;;;0.49;88.70
16806;BME280;8520;50.102;20.010;2023-03-04T06:48:40;97957.06;;;0.55;88.72
16806;BME280;8520;50.102;20.010;2023-03-04T06:51:11;97947.66;;;0.60;89.49
16806;BME280;8520;50.102;20.010;2023-03-04T06:53:40;97943.13;;;0.76;89.37
16806;BME280;8520;50.102;20.010;2023-03-04T06:56:10;97950.38;;;0.83;86.98
16806;BME280;8520;50.102;20.010;2023-03-04T06:58:39;97957.06;;;0.55;87.75
16806;BME280;8520;50.102;20.010;2023-03-04T07:01:13;97958.50;;;0.36;88.85
16806;BME280;8520;50.102;20.010;2023-03-04T07:03:42;97960.63;;;0.25;89.18
16806;BME280;8520;50.102;20.010;2023-03-04T07:06:11;97948.88;;;0.12;89.10
16806;BME280;8520;50.102;20.010;2023-03-04T07:08:40;97963.41;;;0.21;89.70
16806;BME280;8520;50.102;20.010;2023-03-04T07:11:08;97979.88;;;-0.20;89.75
16806;BME280;8520;50.102;20.010;2023-03-04T07:13:37;97949.53;;;0.19;89.11
16806;BME280;8520;50.102;20.010;2023-03-04T07:16:06;97961.47;;;0.22;89.33
16806;BME280;8520;50.102;20.010;2023-03-04T07:18:36;97984.69;;;0.23;88.73
16806;BME280;8520;50.102;20.010;2023-03-04T07:21:05;97974.28;;;0.18;88.32
16806;BME280;8520;50.102;20.010;2023-03-04T07:23:33;98013.72;;;0.22;89.51
16806;BME280;8520;50.102;20.010;2023-03-04T07:26:02;97987.00;;;0.48;88.32
16806;BME280;8520;50.102;20.010;2023-03-04T07:28:30;97984.84;;;0.36;88.27
16806;BME280;8520;50.102;20.010;2023-03-04T07:31:07;97977.63;;;0.96;87.28
16806;BME280;8520;50.102;20.010;2023-03-04T07:33:37;97994.28;;;0.51;86.52
16806;BME280;8520;50.102;20.010;2023-03-04T07:36:05;97992.22;;;0.59;86.60
16806;BME280;8520;50.102;20.010;2023-03-04T07:38:33;98005.03;;;0.58;86.87
16806;BME280;8520;50.102;20.010;2023-03-04T07:41:02;98006.06;;;0.41;87.55
16806;BME280;8520;50.102;20.010;2023-03-04T07:43:30;98011.56;;;0.84;86.83
16806;BME280;8520;50.102;20.010;2023-03-04T07:45:59;98016.75;;;0.75;87.42
16806;BME280;8520;50.102;20.010;2023-03-04T07:48:27;98009.84;;;0.70;87.44
16806;BME280;8520;50.102;20.010;2023-03-04T07:51:05;98008.09;;;0.37;88.59
16806;BME280;8520;50.102;20.010;2023-03-04T07:53:34;98013.72;;;0.69;87.60
16806;BME280;8520;50.102;20.010;2023-03-04T07:56:03;98036.56;;;0.21;87.84
16806;BME280;8520;50.102;20.010;2023-03-04T07:58:31;98023.03;;;0.21;88.60
16806;BME280;8520;50.102;20.010;2023-03-04T08:00:59;98027.59;;;0.24;87.67
16806;BME280;8520;50.102;20.010;2023-03-04T08:03:27;98032.06;;;0.11;88.99
16806;BME280;8520;50.102;20.010;2023-03-04T08:05:56;98028.88;;;0.16;88.98
16806;BME280;8520;50.102;20.010;2023-03-04T08:08:25;98038.44;;;0.24;87.91
16806;BME280;8520;50.102;20.010;2023-03-04T08:10:54;98024.50;;;0.26;87.57
16806;BME280;8520;50.102;20.010;2023-03-04T08:13:22;98035.22;;;0.06;87.50
16806;BME280;8520;50.102;20.010;2023-03-04T08:15:51;98012.19;;;-0.06;88.51
16806;BME280;8520;50.102;20.010;2023-03-04T08:18:22;98014.69;;;0.59;86.88
16806;BME280;8520;50.102;20.010;2023-03-04T08:20:50;98026.56;;;0.42;86.71
16806;BME280;8520;50.102;20.010;2023-03-04T08:23:19;98020.94;;;0.56;86.51
16806;BME280;8520;50.102;20.010;2023-03-04T08:25:48;98027.94;;;0.53;86.20
16806;BME280;8520;50.102;20.010;2023-03-04T08:28:17;98020.50;;;0.07;87.08
16806;BME280;8520;50.102;20.010;2023-03-04T08:30:52;98029.41;;;0.58;85.62
16806;BME280;8520;50.102;20.010;2023-03-04T08:33:20;98025.50;;;0.36;85.46
16806;BME280;8520;50.102;20.010;2023-03-04T08:35:48;98018.50;;;0.62;84.88
16806;BME280;8520;50.102;20.010;2023-03-04T08:38:16;98014.25;;;0.61;84.93
16806;BME280;8520;50.102;20.010;2023-03-04T08:40:44;98019.78;;;0.53;85.45
16806;BME280;8520;50.102;20.010;2023-03-04T08:43:14;98009.47;;;0.45;84.41
16806;BME280;8520;50.102;20.010;2023-03-04T08:45:42;98014.09;;;0.48;84.96
16806;BME280;8520;50.102;20.010;2023-03-04T08:48:10;98009.63;;;0.11;86.44
16806;BME280;8520;50.102;20.010;2023-03-04T08:50:38;98019.38;;;0.78;85.21
16806;BME280;8520;50.102;20.010;2023-03-04T08:53:07;98023.53;;;0.40;85.08
16806;BME280;8520;50.102;20.010;2023-03-04T08:55:36;98030.25;;;0.55;84.18
16806;BME280;8520;50.102;20.010;2023-03-04T08:58:05;98015.59;;;0.25;85.17
16806;BME280;8520;50.102;20.010;2023-03-04T09:00:38;98007.97;;;0.67;84.21
16806;BME280;8520;50.102;20.010;2023-03-04T09:03:09;98007.81;;;0.98;82.99
16806;BME280;8520;50.102;20.010;2023-03-04T09:05:39;98036.31;;;0.63;83.36
16806;BME280;8520;50.102;20.010;2023-03-04T09:08:07;98020.75;;;0.67;82.36
16806;BME280;8520;50.102;20.010;2023-03-04T09:10:35;98035.81;;;0.44;83.72
16806;BME280;8520;50.102;20.010;2023-03-04T09:13:04;98049.38;;;0.17;84.28
16806;BME280;8520;50.102;20.010;2023-03-04T09:15:32;98034.28;;;0.90;83.24
16806;BME280;8520;50.102;20.010;2023-03-04T09:18:04;98041.69;;;0.66;84.14
16806;BME280;8520;50.102;20.010;2023-03-04T09:20:32;98017.72;;;1.28;82.22
16806;BME280;8520;50.102;20.010;2023-03-04T09:23:00;98032.00;;;0.42;84.02
16806;BME280;8520;50.102;20.010;2023-03-04T09:25:28;98026.75;;;1.01;82.23
16806;BME280;8520;50.102;20.010;2023-03-04T09:27:56;98044.13;;;0.34;82.84
16806;BME280;8520;50.102;20.010;2023-03-04T09:30:25;98042.91;;;0.38;83.36
16806;BME280;8520;50.102;20.010;2023-03-04T09:32:54;98021.25;;;0.81;83.31
16806;BME280;8520;50.102;20.010;2023-03-04T09:35:24;98012.50;;;0.74;82.19
16806;BME280;8520;50.102;20.010;2023-03-04T09:37:52;98022.22;;;0.71;83.60
16806;BME280;8520;50.102;20.010;2023-03-04T09:40:22;98035.47;;;0.42;83.39
16806;BME280;8520;50.102;20.010;2023-03-04T09:42:53;98061.00;;;0.68;83.97
16806;BME280;8520;50.102;20.010;2023-03-04T09:45:27;98010.03;;;0.83;83.05
16806;BME280;8520;50.102;20.010;2023-03-04T09:47:57;98015.22;;;0.74;83.54
16806;BME280;8520;50.102;20.010;2023-03-04T09:50:28;98020.91;;;1.42;81.40
16806;BME280;8520;50.102;20.010;2023-03-04T09:53:06;98025.59;;;0.55;81.46
16806;BME280;8520;50.102;20.010;2023-03-04T09:55:43;98003.22;;;0.71;81.89
16806;BME280;8520;50.102;20.010;2023-03-04T09:58:25;97989.91;;;0.80;81.09
16806;BME280;8520;50.102;20.010;2023-03-04T10:01:00;97999.19;;;0.60;81.50
16806;BME280;8520;50.102;20.010;2023-03-04T10:03:36;97997.38;;;0.96;81.15
16806;BME280;8520;50.102;20.010;2023-03-04T10:06:12;97988.84;;;1.57;79.41
16806;BME280;8520;50.102;20.010;2023-03-04T10:08:49;97985.66;;;1.79;78.75
16806;BME280;8520;50.102;20.010;2023-03-04T10:11:23;98017.16;;;1.17;79.88
16806;BME280;8520;50.102;20.010;2023-03-04T10:13:56;97997.25;;;1.43;79.47
16806;BME280;8520;50.102;20.010;2023-03-04T10:16:31;98001.56;;;1.40;79.52
16806;BME280;8520;50.102;20.010;2023-03-04T10:19:15;97996.38;;;1.30;79.62
16806;BME280;8520;50.102;20.010;2023-03-04T10:21:48;98040.56;;;0.87;80.88
16806;BME280;8520;50.102;20.010;2023-03-04T10:24:18;97974.88;;;1.19;80.42
16806;BME280;8520;50.102;20.010;2023-03-04T10:26:51;98011.09;;;0.66;82.03
16806;BME280;8520;50.102;20.010;2023-03-04T10:29:22;97984.72;;;1.49;80.46
16806;BME280;8520;50.102;20.010;2023-03-04T10:31:50;98013.63;;;0.76;81.95
16806;BME280;8520;50.102;20.010;2023-03-04T10:34:22;97996.63;;;1.35;81.44
16806;BME280;8520;50.102;20.010;2023-03-04T10:36:58;98005.69;;;0.66;82.63
16806;BME280;8520;50.102;20.010;2023-03-04T10:39:28;98013.66;;;0.96;83.24
16806;BME280;8520;50.102;20.010;2023-03-04T10:41:59;97998.44;;;1.42;82.38
16806;BME280;8520;50.102;20.010;2023-03-04T10:44:29;97977.69;;;0.92;82.70
16806;BME280;8520;50.102;20.010;2023-03-04T10:46:57;98010.41;;;0.81;83.40
16806;BME280;8520;50.102;20.010;2023-03-04T10:49:28;97978.38;;;0.96;82.80
16806;BME280;8520;50.102;20.010;2023-03-04T10:52:11;97999.00;;;0.70;83.08
16806;BME280;8520;50.102;20.010;2023-03-04T10:54:46;97987.97;;;0.81;83.44
16806;BME280;8520;50.102;20.010;2023-03-04T10:57:17;97975.16;;;1.61;82.10
16806;BME280;8520;50.102;20.010;2023-03-04T10:59:47;97966.44;;;1.69;81.06
16806;BME280;8520;50.102;20.010;2023-03-04T11:02:24;97957.28;;;1.43;82.17
16806;BME280;8520;50.102;20.010;2023-03-04T11:04:55;97968.78;;;1.51;82.61
16806;BME280;8520;50.102;20.010;2023-03-04T11:07:26;97955.72;;;1.26;82.80
16806;BME280;8520;50.102;20.010;2023-03-04T11:09:54;97949.91;;;1.44;81.96
16806;BME280;8520;50.102;20.010;2023-03-04T11:12:32;97947.41;;;1.53;82.30
16806;BME280;8520;50.102;20.010;2023-03-04T11:15:02;97953.63;;;1.34;82.38
16806;BME280;8520;50.102;20.010;2023-03-04T11:17:41;97948.19;;;1.70;81.78
16806;BME280;8520;50.102;20.010;2023-03-04T11:20:15;97940.31;;;1.76;80.44
16806;BME280;8520;50.102;20.010;2023-03-04T11:22:46;97945.00;;;0.99;84.50
16806;BME280;8520;50.102;20.010;2023-03-04T11:25:24;97957.69;;;1.62;82.06
16806;BME280;8520;50.102;20.010;2023-03-04T11:27:55;97947.53;;;1.46;83.55
16806;BME280;8520;50.102;20.010;2023-03-04T11:30:37;97938.56;;;1.49;83.29
16806;BME280;8520;50.102;20.010;2023-03-04T11:33:13;97944.22;;;1.38;83.91
16806;BME280;8520;50.102;20.010;2023-03-04T11:35:52;97943.19;;;1.68;83.42
16806;BME280;8520;50.102;20.010;2023-03-04T11:38:31;97934.97;;;1.88;81.82
16806;BME280;8520;50.102;20.010;2023-03-04T11:41:07;97931.28;;;1.06;83.96
16806;BME280;8520;50.102;20.010;2023-03-04T11:43:42;97928.22;;;1.24;85.31
16806;BME280;8520;50.102;20.010;2023-03-04T11:46:31;97919.59;;;0.90;85.96
16806;BME280;8520;50.102;20.010;2023-03-04T11:49:16;97931.09;;;0.97;86.52
16806;BME280;8520;50.102;20.010;2023-03-04T11:51:52;97913.84;;;1.43;84.82
16806;BME280;8520;50.102;20.010;2023-03-04T11:54:40;97899.50;;;1.79;83.91
16806;BME280;8520;50.102;20.010;2023-03-04T11:57:19;97915.56;;;1.18;85.09
16806;BME280;8520;50.102;20.010;2023-03-04T11:59:58;97901.38;;;1.46;85.30
16806;BME280;8520;50.102;20.010;2023-03-04T12:02:44;97903.88;;;1.73;83.24
16806;BME280;8520;50.102;20.010;2023-03-04T12:05:19;97917.47;;;1.21;85.46
16806;BME280;8520;50.102;20.010;2023-03-04T12:08:28;97909.03;;;1.15;86.09
16806;BME280;8520;50.102;20.010;2023-03-04T12:11:05;97953.91;;;1.20;85.48
16806;BME280;8520;50.102;20.010;2023-03-04T12:13:55;97907.78;;;1.00;86.63
16806;BME280;8520;50.102;20.010;2023-03-04T12:16:42;97908.69;;;1.13;86.77
16806;BME280;8520;50.102;20.010;2023-03-04T12:19:26;97914.75;;;1.01;86.81
16806;BME280;8520;50.102;20.010;2023-03-04T12:22:20;97898.56;;;0.54;88.77
16806;BME280;8520;50.102;20.010;2023-03-04T12:28:13;97915.88;;;1.03;87.17
16806;BME280;8520;50.102;20.010;2023-03-04T12:30:54;97912.94;;;1.14;86.83
16806;BME280;8520;50.102;20.010;2023-03-04T12:33:31;97913.28;;;0.96;86.94
16806;BME280;8520;50.102;20.010;2023-03-04T12:36:14;97911.34;;;0.97;87.57
16806;BME280;8520;50.102;20.010;2023-03-04T12:38:59;97918.72;;;0.96;88.76
16806;BME280;8520;50.102;20.010;2023-03-04T12:41:43;97905.06;;;1.56;86.56
16806;BME280;8520;50.102;20.010;2023-03-04T12:44:17;97904.81;;;1.50;85.54
16806;BME280;8520;50.102;20.010;2023-03-04T12:47:06;97909.03;;;1.15;86.59
16806;BME280;8520;50.102;20.010;2023-03-04T12:49:50;97891.22;;;1.50;86.22
16806;BME280;8520;50.102;20.010;2023-03-04T12:52:31;97913.31;;;1.68;85.70
16806;BME280;8520;50.102;20.010;2023-03-04T12:55:03;97890.13;;;1.64;84.80
16806;BME280;8520;50.102;20.010;2023-03-04T12:57:35;97883.97;;;1.80;85.08
16806;BME280;8520;50.102;20.010;2023-03-04T13:00:19;97883.72;;;1.74;84.20
16806;BME280;8520;50.102;20.010;2023-03-04T13:03:05;97882.44;;;1.26;85.72
16806;BME280;8520;50.102;20.010;2023-03-04T13:05:56;97882.91;;;1.41;86.37
16806;BME280;8520;50.102;20.010;2023-03-04T13:08:36;97878.06;;;1.49;86.57
16806;BME280;8520;50.102;20.010;2023-03-04T13:11:39;97864.41;;;2.01;84.13
16806;BME280;8520;50.102;20.010;2023-03-04T13:14:23;97863.88;;;2.39;83.99
16806;BME280;8520;50.102;20.010;2023-03-04T13:16:54;97878.88;;;1.65;84.87
16806;BME280;8520;50.102;20.010;2023-03-04T13:19:43;97845.25;;;1.92;83.91
16806;BME280;8520;50.102;20.010;2023-03-04T13:22:31;97893.53;;;1.68;84.53
16806;BME280;8520;50.102;20.010;2023-03-04T13:27:46;97874.28;;;2.56;82.39
16806;BME280;8520;50.102;20.010;2023-03-04T13:30:41;97855.03;;;2.35;82.53
16806;BME280;8520;50.102;20.010;2023-03-04T13:33:49;97864.28;;;2.37;82.98
16806;BME280;8520;50.102;20.010;2023-03-04T13:36:31;97875.78;;;2.28;82.93